sensor_id;sensor_type;location;lat;lon;timestamp;pressure;altitude;pressure_sealevel;temperature;humidity
37694;BME280;23531;50.122;8.644;2023-04-06T00:01:02;100882.75;;;6.56;nan
37694;BME280;23531;50.122;8.644;2023-04-06T00:03:05;100876.75;;;6.46;nan
37694;BME280;23531;50.122;8.644;2023-04-06T00:05:07;100884.94;;;6.45;nan
37694;BME280;23531;50.122;8.644;2023-04-06T00:07:08;100877.09;;;6.43;nan
37694;BME280;23531;50.122;8.644;2023-04-06T00:09:09;100878.78;;;6.44;nan
37694;BME280;23531;50.122;8.644;2023-04-06T00:11:11;100877.09;;;6.43;nan
37694;BME280;23531;50.122;8.644;2023-04-06T00:13:12;100875.94;;;6.46;nan
37694;BME280;23531;50.122;8.644;2023-04-06T00:15:13;100872.25;;;6.47;nan
37694;BME280;23531;50.122;8.644;2023-04-06T00:17:14;100874.25;;;6.45;nan
37694;BME280;23531;50.122;8.644;2023-04-06T00:19:17;100867.56;;;6.49;nan
37694;BME280;23531;50.122;8.644;2023-04-06T00:21:18;100871.59;;;6.45;nan
37694;BME280;23531;50.122;8.644;2023-04-06T00:23:20;100878.50;;;6.31;nan
37694;BME280;23531;50.122;8.644;2023-04-06T00:25:21;100873.16;;;6.23;nan
37694;BME280;23531;50.122;8.644;2023-04-06T00:27:22;100866.97;;;6.31;nan
37694;BME280;23531;50.122;8.644;2023-04-06T00:29:23;100865.44;;;6.36;nan
37694;BME280;23531;50.122;8.644;2023-04-06T00:31:25;100858.13;;;6.30;nan
37694;BME280;23531;50.122;8.644;2023-04-06T00:33:26;100858.63;;;6.26;nan
37694;BME280;23531;50.122;8.644;2023-04-06T00:35:28;100861.28;;;6.34;nan
37694;BME280;23531;50.122;8.644;2023-04-06T00:37:30;100858.31;;;6.29;nan
37694;BME280;23531;50.122;8.644;2023-04-06T00:39:31;100856.63;;;6.28;nan
37694;BME280;23531;50.122;8.644;2023-04-06T00:41:33;100853.63;;;6.31;nan
37694;BME280;23531;50.122;8.644;2023-04-06T00:43:34;100846.97;;;6.27;nan
37694;BME280;23531;50.122;8.644;2023-04-06T00:45:35;100849.63;;;6.27;nan
37694;BME280;23531;50.122;8.644;2023-04-06T00:47:36;100853.97;;;6.28;nan
37694;BME280;23531;50.122;8.644;2023-04-06T00:49:38;100854.47;;;6.23;nan
37694;BME280;23531;50.122;8.644;2023-04-06T00:51:41;100844.47;;;6.17;nan
37694;BME280;23531;50.122;8.644;2023-04-06T00:53:42;100842.94;;;6.23;nan
37694;BME280;23531;50.122;8.644;2023-04-06T00:55:43;100842.78;;;6.24;nan
37694;BME280;23531;50.122;8.644;2023-04-06T00:57:45;100834.63;;;6.17;nan
37694;BME280;23531;50.122;8.644;2023-04-06T00:59:46;100829.31;;;6.17;nan
37694;BME280;23531;50.122;8.644;2023-04-06T01:01:47;100826.47;;;6.19;nan
37694;BME280;23531;50.122;8.644;2023-04-06T01:03:48;100827.47;;;6.10;nan
37694;BME280;23531;50.122;8.644;2023-04-06T01:05:51;100824.00;;;6.01;nan
37694;BME280;23531;50.122;8.644;2023-04-06T01:07:59;100831.16;;;6.01;nan
37694;BME280;23531;50.122;8.644;2023-04-06T01:10:01;100821.16;;;6.03;nan
37694;BME280;23531;50.122;8.644;2023-04-06T01:12:02;100826.66;;;6.01;nan
37694;BME280;23531;50.122;8.644;2023-04-06T01:14:04;100823.03;;;5.94;nan
37694;BME280;23531;50.122;8.644;2023-04-06T01:16:05;100819.34;;;5.95;nan
37694;BME280;23531;50.122;8.644;2023-04-06T01:18:07;100827.19;;;5.97;nan
37694;BME280;23531;50.122;8.644;2023-04-06T01:20:10;100826.50;;;5.87;nan
37694;BME280;23531;50.122;8.644;2023-04-06T01:22:15;100826.00;;;5.83;nan
37694;BME280;23531;50.122;8.644;2023-04-06T01:24:16;100825.50;;;5.79;nan
37694;BME280;23531;50.122;8.644;2023-04-06T01:26:17;100830.69;;;5.73;nan
37694;BME280;23531;50.122;8.644;2023-04-06T01:28:19;100823.38;;;5.75;nan
37694;BME280;23531;50.122;8.644;2023-04-06T01:30:20;100817.66;;;5.78;nan
37694;BME280;23531;50.122;8.644;2023-04-06T01:32:21;100811.50;;;5.86;nan
37694;BME280;23531;50.122;8.644;2023-04-06T01:34:22;100816.00;;;5.77;nan
37694;BME280;23531;50.122;8.644;2023-04-06T01:36:24;100811.22;;;5.64;nan
37694;BME280;23531;50.122;8.644;2023-04-06T01:38:26;100809.34;;;5.65;nan
37694;BME280;23531;50.122;8.644;2023-04-06T01:40:27;100809.03;;;5.60;nan
37694;BME280;23531;50.122;8.644;2023-04-06T01:42:29;100810.69;;;5.69;nan
37694;BME280;23531;50.122;8.644;2023-04-06T01:44:31;100812.69;;;5.67;nan
37694;BME280;23531;50.122;8.644;2023-04-06T01:46:32;100812.03;;;5.73;nan
37694;BME280;23531;50.122;8.644;2023-04-06T01:48:33;100811.50;;;5.69;nan
37694;BME280;23531;50.122;8.644;2023-04-06T01:50:35;100805.50;;;5.67;nan
37694;BME280;23531;50.122;8.644;2023-04-06T01:52:37;100807.19;;;5.68;nan
37694;BME280;23531;50.122;8.644;2023-04-06T01:54:39;100806.69;;;5.73;nan
37694;BME280;23531;50.122;8.644;2023-04-06T01:56:41;100811.22;;;5.64;nan
37694;BME280;23531;50.122;8.644;2023-04-06T01:58:42;100808.34;;;5.58;nan
37694;BME280;23531;50.122;8.644;2023-04-06T02:00:43;100806.03;;;5.46;nan
